Time;durP1;ratioP1;P1;durP2;ratioP2;P2;SDS_P1;SDS_P2;PMS_P1;PMS_P2;Temp;Humidity;BMP_temperature;BMP_pressure;BME280_temperature;BME280_humidity;BME280_pressure;Samples;Min_cycle;Max_cycle;Signal;HPM_P1;HPM_P2
2022/04/19 00:00:37;;;;;;;0.00;0.00;;;9.70;99.90;;;;;;5041486;28;20080;-65
2022/04/19 00:03:07;;;;;;;0.00;0.00;;;9.70;99.90;;;;;;5041439;28;20048;-66
2022/04/19 00:05:33;;;;;;;0.00;0.00;;;9.70;99.90;;;;;;5040517;28;20490;-67
2022/04/19 00:08:00;;;;;;;0.00;0.00;;;9.60;99.90;;;;;;5041400;28;20132;-65
2022/04/19 00:10:28;;;;;;;0.00;0.00;;;9.60;99.90;;;;;;5038643;28;20129;-65
2022/04/19 00:12:55;;;;;;;0.00;0.00;;;9.60;99.90;;;;;;5040950;28;20080;-66
2022/04/19 00:15:22;;;;;;;0.00;0.00;;;9.50;99.90;;;;;;5040385;28;20037;-64
2022/04/19 00:17:48;;;;;;;0.00;0.00;;;9.50;99.90;;;;;;5041056;28;20052;-65
2022/04/19 00:20:14;;;;;;;0.00;0.00;;;10.40;99.90;;;;;;5040856;28;20037;-63
2022/04/19 00:22:40;;;;;;;0.00;0.00;;;9.40;99.90;;;;;;5040457;28;20033;-65
2022/04/19 00:25:07;;;;;;;0.00;0.00;;;9.40;99.90;;;;;;5039377;28;20483;-64
2022/04/19 00:27:33;;;;;;;0.00;0.00;;;9.30;99.90;;;;;;5040466;28;20490;-65
2022/04/19 00:29:59;;;;;;;0.00;0.00;;;9.20;99.90;;;;;;5040264;28;20373;-68
2022/04/19 00:32:24;;;;;;;0.00;0.00;;;9.10;99.90;;;;;;5040818;28;20053;-65
2022/04/19 00:34:51;;;;;;;0.00;0.00;;;9.10;99.90;;;;;;5040589;28;20037;-67
2022/04/19 00:37:18;;;;;;;0.00;0.00;;;9.20;99.90;;;;;;5040413;28;20091;-67
2022/04/19 00:39:44;;;;;;;0.00;0.00;;;9.00;99.90;;;;;;5040365;28;20111;-64
2022/04/19 00:42:09;;;;;;;0.00;0.00;;;9.00;99.90;;;;;;5040006;28;20468;-62
2022/04/19 00:44:37;;;;;;;0.00;0.00;;;9.00;99.90;;;;;;5040779;28;20095;-67
2022/04/19 00:47:09;;;;;;;0.00;0.00;;;9.00;99.90;;;;;;5050931;28;20550;-65
2022/04/19 00:49:40;;;;;;;0.00;0.00;;;9.00;99.90;;;;;;5040427;28;20649;-68
2022/04/19 00:52:07;;;;;;;0.00;0.00;;;8.90;99.90;;;;;;5040580;28;20041;-66
2022/04/19 00:54:33;;;;;;;0.00;0.00;;;8.90;99.90;;;;;;5039739;28;20048;-66
2022/04/19 00:56:59;;;;;;;0.00;0.00;;;8.90;99.90;;;;;;5039901;28;20626;-66
2022/04/19 00:59:25;;;;;;;0.00;0.00;;;8.80;99.90;;;;;;5039900;28;20049;-65
2022/04/19 01:01:51;;;;;;;0.00;0.00;;;8.90;99.90;;;;;;5040947;28;20047;-65
2022/04/19 01:04:17;;;;;;;0.00;0.00;;;8.80;99.90;;;;;;5053748;22;20073;-65
2022/04/19 01:06:43;;;;;;;0.00;0.00;;;8.70;99.90;;;;;;5052208;28;20399;-67
2022/04/19 01:09:09;;;;;;;0.00;0.00;;;8.70;99.90;;;;;;5060260;28;20044;-66
2022/04/19 01:14:20;;;;;;;0.00;0.00;;;8.70;99.90;;;;;;5060281;28;20383;-65
2022/04/19 01:16:46;;;;;;;0.00;0.00;;;8.70;99.90;;;;;;5060568;28;20080;-65
2022/04/19 01:19:15;;;;;;;0.00;0.00;;;8.80;99.90;;;;;;5059759;28;20083;-65
2022/04/19 01:21:48;;;;;;;0.00;0.00;;;8.70;99.90;;;;;;5063790;28;20040;-65
2022/04/19 01:24:19;;;;;;;0.00;0.00;;;8.70;99.90;;;;;;5063237;28;20124;-65
2022/04/19 01:26:45;;;;;;;0.00;0.00;;;8.80;99.90;;;;;;5063898;28;20123;-66
2022/04/19 01:29:12;;;;;;;0.00;0.00;;;8.70;99.90;;;;;;5064114;28;20768;-67
2022/04/19 01:31:39;;;;;;;0.00;0.00;;;9.00;99.90;;;;;;5064607;28;20059;-67
2022/04/19 01:34:05;;;;;;;0.00;0.00;;;8.60;99.90;;;;;;5064304;28;20044;-65
2022/04/19 01:36:38;;;;;;;0.00;0.00;;;8.50;99.90;;;;;;5063975;28;20063;-66
2022/04/19 01:39:09;;;;;;;0.00;0.00;;;8.50;99.90;;;;;;5064316;28;20072;-67
2022/04/19 01:41:36;;;;;;;0.00;0.00;;;8.40;99.90;;;;;;5063097;28;20178;-67
2022/04/19 01:44:06;;;;;;;0.00;0.00;;;8.30;99.90;;;;;;5064483;28;20481;-66
2022/04/19 01:46:33;;;;;;;0.00;0.00;;;8.30;99.90;;;;;;5057429;28;20044;-67
2022/04/19 01:48:59;;;;;;;0.00;0.00;;;8.20;99.90;;;;;;5047026;28;20072;-67
2022/04/19 01:51:24;;;;;;;0.00;0.00;;;8.20;99.90;;;;;;5044138;28;20049;-64
2022/04/19 01:53:54;;;;;;;0.10;0.10;;;8.40;99.90;;;;;;5044110;28;20125;-66
2022/04/19 01:56:20;;;;;;;0.00;0.00;;;8.20;99.90;;;;;;5042758;28;20041;-65
2022/04/19 01:58:45;;;;;;;0.00;0.00;;;8.20;99.90;;;;;;5043555;28;20055;-67
2022/04/19 02:01:11;;;;;;;0.00;0.00;;;8.20;99.90;;;;;;5043708;28;20129;-67
2022/04/19 02:03:37;;;;;;;0.00;0.00;;;8.20;99.90;;;;;;5059254;28;20063;-65
2022/04/19 02:06:11;;;;;;;0.00;0.00;;;8.20;99.90;;;;;;5043884;28;20045;-68
2022/04/19 02:08:37;;;;;;;0.00;0.00;;;8.10;99.90;;;;;;5044055;28;20123;-67
2022/04/19 02:11:03;;;;;;;0.00;0.00;;;8.90;99.90;;;;;;5042958;28;20102;-67
2022/04/19 02:13:31;;;;;;;0.00;0.00;;;8.00;99.90;;;;;;5043613;28;20149;-67
2022/04/19 02:15:58;;;;;;;0.00;0.00;;;8.00;99.90;;;;;;5043457;28;20036;-67
2022/04/19 02:18:24;;;;;;;0.00;0.00;;;8.00;99.90;;;;;;5058268;28;20415;-66
2022/04/19 02:20:50;;;;;;;0.00;0.00;;;8.00;99.90;;;;;;5043979;28;20049;-66
2022/04/19 02:23:15;;;;;;;0.00;0.00;;;7.90;99.90;;;;;;5042451;28;20104;-67
2022/04/19 02:25:42;;;;;;;0.00;0.00;;;7.90;99.90;;;;;;5058403;28;20831;-67
2022/04/19 02:28:10;;;;;;;0.00;0.00;;;7.90;99.90;;;;;;5043945;28;20033;-68
2022/04/19 02:30:36;;;;;;;0.00;0.00;;;7.90;99.90;;;;;;5043466;28;20052;-67
2022/04/19 02:33:02;;;;;;;0.00;0.00;;;7.80;99.90;;;;;;5042373;28;20052;-68
2022/04/19 02:35:28;;;;;;;0.00;0.00;;;7.80;99.90;;;;;;5043006;28;20133;-65
2022/04/19 02:37:56;;;;;;;0.00;0.00;;;7.80;99.90;;;;;;5058398;28;20084;-65
2022/04/19 02:40:23;;;;;;;0.00;0.00;;;7.80;99.90;;;;;;5041813;28;20056;-65
2022/04/19 02:42:50;;;;;;;0.00;0.00;;;7.70;99.90;;;;;;5043170;28;20040;-67
2022/04/19 02:45:19;;;;;;;0.00;0.00;;;7.70;99.90;;;;;;5044900;28;20041;-66
2022/04/19 02:47:45;;;;;;;0.00;0.00;;;7.70;99.90;;;;;;5051635;28;20037;-65
2022/04/19 02:50:11;;;;;;;0.10;0.10;;;7.70;99.90;;;;;;5042895;28;20052;-66
2022/04/19 02:52:37;;;;;;;0.00;0.00;;;7.70;99.90;;;;;;5043123;28;20064;-65
2022/04/19 02:55:03;;;;;;;0.00;0.00;;;7.70;99.90;;;;;;5042419;28;20122;-65
2022/04/19 02:57:29;;;;;;;0.00;0.00;;;7.70;99.90;;;;;;5042043;28;20045;-65
2022/04/19 02:59:54;;;;;;;0.00;0.00;;;7.70;99.90;;;;;;5043214;28;20045;-65
2022/04/19 03:02:20;;;;;;;0.00;0.00;;;7.70;99.90;;;;;;5042366;28;20659;-66
2022/04/19 03:04:46;;;;;;;0.00;0.00;;;7.60;99.90;;;;;;5042765;28;20067;-65
2022/04/19 03:07:14;;;;;;;0.00;0.00;;;7.80;99.90;;;;;;5041990;28;20040;-65
2022/04/19 03:09:41;;;;;;;0.00;0.00;;;7.60;99.90;;;;;;5042202;28;20052;-62
2022/04/19 03:12:10;;;;;;;0.00;0.00;;;7.60;99.90;;;;;;5043324;28;20059;-65
2022/04/19 03:14:36;;;;;;;0.00;0.00;;;7.50;99.90;;;;;;5041938;28;20053;-66
2022/04/19 03:17:02;;;;;;;0.00;0.00;;;7.50;99.90;;;;;;5042396;28;20518;-65
2022/04/19 03:19:27;;;;;;;0.00;0.00;;;7.40;99.90;;;;;;5042259;28;20041;-65
2022/04/19 03:21:53;;;;;;;0.00;0.00;;;7.40;99.90;;;;;;5041953;28;20720;-65
2022/04/19 03:29:47;;;;;;;0.00;0.00;;;7.40;99.90;;;;;;5042189;28;20319;-68
2022/04/19 03:32:13;;;;;;;0.00;0.00;;;8.20;99.90;;;;;;5042076;28;20141;-66
2022/04/19 03:34:39;;;;;;;0.38;0.38;;;7.30;99.90;;;;;;5057957;28;20099;-65
2022/04/19 03:37:05;;;;;;;0.00;0.00;;;7.40;99.90;;;;;;5041837;28;20432;-65
2022/04/19 03:39:31;;;;;;;0.00;0.00;;;7.40;99.90;;;;;;5039718;28;20049;-66
2022/04/19 03:41:58;;;;;;;0.00;0.00;;;7.40;99.90;;;;;;5042119;28;20644;-66
2022/04/19 03:44:25;;;;;;;0.00;0.00;;;7.40;99.90;;;;;;5040878;28;20080;-65
2022/04/19 03:47:24;;;;;;;0.00;0.00;;;7.40;99.90;;;;;;5053018;28;20110;-65
2022/04/19 03:49:43;;;;;;;0.00;0.00;;;7.40;99.90;;;;;;5040090;28;20167;-66
2022/04/19 03:52:09;;;;;;;0.00;0.00;;;7.40;99.90;;;;;;5042099;28;20144;-65
2022/04/19 03:54:35;;;;;;;0.00;0.00;;;7.40;99.90;;;;;;5041231;28;20056;-65
2022/04/19 03:57:07;;;;;;;0.00;0.00;;;7.30;99.90;;;;;;5042090;28;20051;-66
2022/04/19 03:59:33;;;;;;;0.00;0.00;;;7.20;99.90;;;;;;5040910;28;20084;-66
2022/04/19 04:01:59;;;;;;;0.00;0.00;;;7.20;99.90;;;;;;5041748;28;20541;-65
2022/04/19 04:04:30;;;;;;;0.00;0.00;;;7.10;99.90;;;;;;5041302;28;20115;-65
2022/04/19 04:07:00;;;;;;;0.00;0.00;;;7.50;99.90;;;;;;5041205;28;20055;-66
2022/04/19 04:09:32;;;;;;;0.00;0.00;;;7.10;99.90;;;;;;5040584;28;20655;-65
2022/04/19 04:12:14;;;;;;;0.00;0.00;;;7.00;99.90;;;;;;5041209;28;20053;-65
2022/04/19 04:14:42;;;;;;;0.00;0.00;;;7.00;99.90;;;;;;5041385;28;20064;-65
2022/04/19 04:17:08;;;;;;;0.00;0.00;;;6.90;99.90;;;;;;5040607;28;20045;-65
2022/04/19 04:19:34;;;;;;;0.00;0.00;;;6.90;99.90;;;;;;5040747;28;20056;-66
2022/04/19 04:22:00;;;;;;;0.00;0.00;;;6.80;99.90;;;;;;5041209;28;20171;-65
2022/04/19 04:24:26;;;;;;;0.00;0.00;;;6.80;99.90;;;;;;5040352;28;20114;-65
2022/04/19 04:26:52;;;;;;;0.00;0.00;;;6.80;99.90;;;;;;5039676;28;20049;-66
2022/04/19 04:29:17;;;;;;;0.00;0.00;;;6.80;99.90;;;;;;5040154;28;20045;-65
2022/04/19 04:31:43;;;;;;;0.00;0.00;;;7.90;99.90;;;;;;5040992;28;20049;-68
2022/04/19 04:34:09;;;;;;;0.00;0.00;;;6.80;99.90;;;;;;5040460;28;20500;-64
2022/04/19 04:36:35;;;;;;;0.00;0.00;;;6.80;99.90;;;;;;5040991;28;20044;-66
2022/04/19 04:39:00;;;;;;;0.00;0.00;;;6.80;99.90;;;;;;5040279;28;20041;-65
2022/04/19 04:41:26;;;;;;;0.00;0.00;;;6.90;99.90;;;;;;5039739;28;20045;-65
2022/04/19 04:43:52;;;;;;;0.00;0.00;;;6.90;99.90;;;;;;5041028;28;20142;-66
2022/04/19 04:51:46;;;;;;;0.00;0.00;;;6.90;99.90;;;;;;5039868;28;20049;-65
2022/04/19 04:54:12;;;;;;;0.00;0.00;;;7.90;99.90;;;;;;5040431;28;20044;-65
2022/04/19 04:56:37;;;;;;;0.00;0.00;;;6.90;99.90;;;;;;5040248;28;20568;-65
2022/04/19 04:59:03;;;;;;;0.00;0.00;;;6.80;99.90;;;;;;5040885;28;20108;-66
2022/04/19 05:01:29;;;;;;;0.00;0.00;;;6.80;99.90;;;;;;5039898;28;20674;-66
2022/04/19 05:03:54;;;;;;;0.00;0.00;;;6.80;99.90;;;;;;5040528;28;20506;-66
2022/04/19 05:06:20;;;;;;;0.00;0.00;;;6.80;99.90;;;;;;5040683;28;20041;-65
2022/04/19 05:08:46;;;;;;;0.00;0.00;;;6.80;99.90;;;;;;5040016;28;20646;-66
2022/04/19 05:11:11;;;;;;;0.00;0.00;;;6.80;99.90;;;;;;5039790;28;20041;-65
2022/04/19 05:13:37;;;;;;;0.00;0.00;;;6.80;99.90;;;;;;5055575;28;20052;-66
2022/04/19 05:16:03;;;;;;;0.03;0.03;;;6.80;99.90;;;;;;5040594;28;20116;-66
2022/04/19 05:18:30;;;;;;;0.00;0.00;;;6.90;99.90;;;;;;5039640;28;20053;-66
2022/04/19 05:20:56;;;;;;;0.00;0.00;;;7.00;99.90;;;;;;5040525;28;20067;-67
2022/04/19 05:23:22;;;;;;;0.00;0.00;;;7.00;99.90;;;;;;5040280;28;20052;-66
2022/04/19 05:25:47;;;;;;;0.00;0.00;;;7.20;99.90;;;;;;5039056;28;20099;-67
2022/04/19 05:28:13;;;;;;;0.00;0.00;;;7.40;99.90;;;;;;5040253;28;20049;-65
2022/04/19 05:30:39;;;;;;;0.00;0.00;;;7.60;99.90;;;;;;5040659;28;20604;-66
2022/04/19 05:33:05;;;;;;;0.00;0.00;;;7.80;99.90;;;;;;5056017;28;20052;-66
2022/04/19 05:35:31;;;;;;;0.00;0.00;;;8.00;99.90;;;;;;5039377;28;20542;-66
2022/04/19 05:37:58;;;;;;;0.05;0.05;;;8.20;99.90;;;;;;5040314;28;20510;-67
2022/04/19 05:40:23;;;;;;;0.00;0.00;;;8.60;99.90;;;;;;5039517;28;20084;-66
2022/04/19 05:42:49;;;;;;;0.10;0.10;;;9.10;99.90;;;;;;5040234;28;20072;-66
2022/04/19 05:45:15;;;;;;;0.10;0.10;;;9.50;99.90;;;;;;5041993;28;20310;-65
2022/04/19 05:47:40;;;;;;;0.00;0.00;;;9.80;99.90;;;;;;5049191;28;20047;-66
2022/04/19 05:50:06;;;;;;;0.00;0.00;;;10.10;99.90;;;;;;5040401;28;20051;-65
2022/04/19 05:52:32;;;;;;;0.00;0.00;;;10.40;99.90;;;;;;5039295;28;20045;-65
2022/04/19 05:54:58;;;;;;;0.00;0.00;;;10.50;99.90;;;;;;5039515;28;20041;-66
2022/04/19 05:57:23;;;;;;;0.38;0.38;;;11.80;99.90;;;;;;5039767;28;20049;-65
2022/04/19 05:59:49;;;;;;;0.30;0.20;;;10.80;99.90;;;;;;5039893;28;20037;-66
2022/04/19 06:04:59;;;;;;;0.00;0.00;;;11.60;99.90;;;;;;5040096;28;20056;-66
2022/04/19 06:07:32;;;;;;;0.00;0.00;;;12.80;99.90;;;;;;5039445;28;20041;-66
2022/04/19 06:09:58;;;;;;;0.00;0.00;;;12.10;99.90;;;;;;5041549;28;20117;-65
2022/04/19 06:12:24;;;;;;;0.00;0.00;;;13.50;99.90;;;;;;5043532;28;20446;-65
2022/04/19 06:14:50;;;;;;;0.00;0.00;;;12.60;99.90;;;;;;5043693;28;20041;-65
2022/04/19 06:17:17;;;;;;;0.00;0.00;;;12.60;99.90;;;;;;5042518;28;20056;-64
2022/04/19 06:19:44;;;;;;;0.00;0.00;;;12.70;99.90;;;;;;5044161;28;20454;-67
2022/04/19 06:22:09;;;;;;;0.00;0.00;;;12.60;99.90;;;;;;5043654;28;20420;-66
2022/04/19 06:24:36;;;;;;;0.10;0.10;;;12.80;99.90;;;;;;5042300;28;20052;-66
2022/04/19 06:27:01;;;;;;;0.00;0.00;;;12.90;99.90;;;;;;5043611;28;20399;-66
2022/04/19 06:29:27;;;;;;;0.00;0.00;;;13.10;99.90;;;;;;5042919;28;20132;-65
2022/04/19 06:31:53;;;;;;;0.00;0.00;;;13.30;99.90;;;;;;5043827;28;20045;-67
2022/04/19 06:34:19;;;;;;;0.00;0.00;;;13.40;99.90;;;;;;5041948;28;20848;-66
2022/04/19 06:36:44;;;;;;;0.00;0.00;;;13.50;99.90;;;;;;5058672;28;20048;-66
2022/04/19 06:39:10;;;;;;;0.00;0.00;;;13.50;99.90;;;;;;5042327;28;20037;-65
2022/04/19 06:41:37;;;;;;;0.00;0.00;;;13.50;99.90;;;;;;5042753;28;20049;-65
2022/04/19 06:44:03;;;;;;;0.00;0.00;;;13.30;99.90;;;;;;5043120;28;20052;-65
2022/04/19 06:46:30;;;;;;;0.00;0.00;;;13.30;99.90;;;;;;5050363;28;20048;-64
2022/04/19 06:48:56;;;;;;;0.00;0.00;;;13.30;99.90;;;;;;5046429;28;20041;-65
2022/04/19 06:51:22;;;;;;;0.00;0.00;;;13.30;99.90;;;;;;5042159;28;20045;-65
2022/04/19 06:53:49;;;;;;;0.00;0.00;;;13.60;99.90;;;;;;5041573;28;20037;-65
2022/04/19 06:56:15;;;;;;;0.00;0.00;;;13.40;99.90;;;;;;5057632;28;20045;-64
2022/04/19 06:58:42;;;;;;;0.10;0.10;;;13.50;99.90;;;;;;5041973;28;20447;-65
2022/04/19 07:01:10;;;;;;;0.00;0.00;;;13.40;99.90;;;;;;5043365;28;20055;-65
2022/04/19 07:03:36;;;;;;;0.00;0.00;;;13.80;99.90;;;;;;5043110;28;20140;-65
2022/04/19 07:06:03;;;;;;;0.05;0.05;;;13.90;99.90;;;;;;5042760;28;20115;-64
2022/04/19 07:08:28;;;;;;;0.00;0.00;;;13.50;99.90;;;;;;5042025;28;20045;-65
2022/04/19 07:10:55;;;;;;;0.10;0.10;;;13.70;99.90;;;;;;5057185;28;20550;-65
2022/04/19 07:13:21;;;;;;;0.00;0.00;;;14.10;99.90;;;;;;5042140;28;20880;-65
2022/04/19 07:15:46;;;;;;;0.00;0.00;;;14.50;99.90;;;;;;5041795;28;20061;-65
2022/04/19 07:18:13;;;;;;;0.35;0.20;;;14.70;99.90;;;;;;5041703;28;20040;-64
2022/04/19 07:28:52;;;;;;;0.00;0.00;;;15.40;99.90;;;;;;5042405;28;20288;-65
2022/04/19 07:31:17;;;;;;;0.05;0.05;;;15.20;99.90;;;;;;5042313;28;20504;-65
2022/04/19 07:33:43;;;;;;;0.00;0.00;;;15.10;99.90;;;;;;5047818;28;20681;-65
2022/04/19 07:36:09;;;;;;;0.00;0.00;;;15.10;99.90;;;;;;5070580;28;20036;-67
2022/04/19 07:38:35;;;;;;;0.00;0.00;;;15.10;99.90;;;;;;5073371;28;20071;-66
2022/04/19 07:41:00;;;;;;;0.00;0.00;;;15.50;99.90;;;;;;5082052;28;20042;-66
2022/04/19 07:43:26;;;;;;;0.00;0.00;;;15.70;99.90;;;;;;5080382;28;20140;-66
2022/04/19 07:45:52;;;;;;;0.10;0.10;;;15.70;99.90;;;;;;5067515;28;20041;-66
2022/04/19 07:48:18;;;;;;;0.00;0.00;;;15.60;99.90;;;;;;5050545;28;20037;-65
2022/04/19 07:50:44;;;;;;;0.13;0.13;;;15.80;99.90;;;;;;5041859;28;20750;-65
2022/04/19 07:53:10;;;;;;;0.00;0.00;;;15.90;99.90;;;;;;5051696;28;20032;-64
2022/04/19 07:55:36;;;;;;;0.20;0.20;;;15.90;99.90;;;;;;5081393;28;20078;-65
2022/04/19 07:58:03;;;;;;;0.00;0.00;;;16.00;99.90;;;;;;5081948;28;20032;-65
2022/04/19 08:00:30;;;;;;;0.00;0.00;;;16.00;99.90;;;;;;5081695;28;20072;-64
2022/04/19 08:02:56;;;;;;;0.00;0.00;;;16.00;99.90;;;;;;5081154;28;20040;-66
2022/04/19 08:05:23;;;;;;;0.00;0.00;;;15.50;99.90;;;;;;5080973;28;20051;-65
2022/04/19 08:07:49;;;;;;;0.00;0.00;;;15.50;99.90;;;;;;5082104;28;20069;-65
2022/04/19 08:10:16;;;;;;;0.00;0.00;;;15.70;99.90;;;;;;5078879;28;20139;-67
2022/04/19 08:12:42;;;;;;;0.00;0.00;;;15.60;99.90;;;;;;5081983;28;20047;-65
2022/04/19 08:15:08;;;;;;;0.00;0.00;;;15.70;99.90;;;;;;5080389;28;20382;-64
2022/04/19 08:17:34;;;;;;;0.00;0.00;;;15.80;99.90;;;;;;5079784;28;20051;-65
2022/04/19 08:20:01;;;;;;;0.00;0.00;;;15.90;99.90;;;;;;5079639;28;20055;-65
2022/04/19 08:22:27;;;;;;;0.00;0.00;;;15.90;99.90;;;;;;5081365;28;20052;-64
2022/04/19 08:24:53;;;;;;;0.00;0.00;;;16.00;99.90;;;;;;5081202;28;20119;-65
2022/04/19 08:27:19;;;;;;;0.00;0.00;;;16.00;99.90;;;;;;5080902;28;20136;-65
2022/04/19 08:29:45;;;;;;;0.00;0.00;;;15.90;99.90;;;;;;5080800;28;20040;-63
2022/04/19 08:32:11;;;;;;;0.00;0.00;;;16.00;99.90;;;;;;5080908;28;20491;-64
2022/04/19 08:34:38;;;;;;;0.00;0.00;;;16.10;99.90;;;;;;5081512;28;20044;-65
2022/04/19 08:37:04;;;;;;;0.00;0.00;;;16.00;99.90;;;;;;5080840;28;20140;-65
2022/04/19 08:39:30;;;;;;;0.00;0.00;;;16.00;99.90;;;;;;5079951;28;20699;-66
2022/04/19 08:41:55;;;;;;;0.00;0.00;;;15.50;99.90;;;;;;5080119;28;20209;-65
2022/04/19 08:44:21;;;;;;;0.00;0.00;;;15.50;99.90;;;;;;5080851;28;20036;-66
2022/04/19 08:46:47;;;;;;;0.00;0.00;;;15.60;99.90;;;;;;5057456;28;20048;-65
2022/04/19 08:49:15;;;;;;;0.00;0.00;;;15.70;99.90;;;;;;5041920;28;20041;-66
2022/04/19 08:51:41;;;;;;;0.00;0.00;;;15.90;99.90;;;;;;5061148;28;20402;-65
2022/04/19 08:59:41;;;;;;;0.00;0.00;;;16.10;99.90;;;;;;5039806;28;20057;-65
2022/04/19 09:02:07;;;;;;;0.00;0.00;;;16.00;99.90;;;;;;5041070;28;20174;-67
2022/04/19 09:04:33;;;;;;;0.00;0.00;;;16.10;99.90;;;;;;5040086;28;20124;-64
2022/04/19 09:07:00;;;;;;;0.00;0.00;;;16.10;99.90;;;;;;5042426;28;20060;-66
2022/04/19 09:09:34;;;;;;;0.00;0.00;;;16.30;99.90;;;;;;5059530;28;20082;-64
2022/04/19 09:12:12;;;;;;;0.10;0.10;;;16.50;99.90;;;;;;5042112;28;20174;-65
2022/04/19 09:14:55;;;;;;;0.00;0.00;;;16.50;99.90;;;;;;5059611;28;20048;-65
2022/04/19 09:17:30;;;;;;;0.00;0.00;;;16.60;99.90;;;;;;5059858;28;20049;-65
2022/04/19 09:20:18;;;;;;;0.00;0.00;;;16.40;99.90;;;;;;5058808;28;20064;-66
2022/04/19 09:22:58;;;;;;;0.10;0.10;;;16.60;99.90;;;;;;5059208;28;20060;-65
2022/04/19 09:25:25;;;;;;;0.00;0.00;;;16.60;99.90;;;;;;5059003;28;20109;-65
2022/04/19 09:27:53;;;;;;;0.00;0.00;;;16.70;99.90;;;;;;5060734;28;20403;-66
2022/04/19 09:30:24;;;;;;;0.00;0.00;;;16.80;99.90;;;;;;5060251;28;20056;-66
2022/04/19 09:33:26;;;;;;;0.00;0.00;;;16.90;99.90;;;;;;5059615;28;20087;-65
2022/04/19 09:35:57;;;;;;;0.00;0.00;;;17.00;99.90;;;;;;5017545;28;20073;-68
2022/04/19 09:38:51;;;;;;;0.00;0.00;;;16.90;99.90;;;;;;5053027;28;20147;-68
2022/04/19 09:41:30;;;;;;;0.00;0.00;;;17.10;99.90;;;;;;5050583;28;20068;-65
2022/04/19 09:44:14;;;;;;;0.00;0.00;;;17.20;99.90;;;;;;5062929;28;20048;-65
2022/04/19 09:47:00;;;;;;;0.10;0.10;;;17.00;99.90;;;;;;5057612;28;20086;-65
2022/04/19 09:49:48;;;;;;;0.00;0.00;;;17.20;99.90;;;;;;5043922;28;20037;-64
2022/04/19 09:52:14;;;;;;;0.08;0.08;;;17.60;99.90;;;;;;5043247;28;20053;-64
2022/04/19 09:54:44;;;;;;;0.00;0.00;;;17.60;99.90;;;;;;5042456;28;20041;-65
2022/04/19 09:57:11;;;;;;;0.10;0.10;;;18.00;99.90;;;;;;5044491;28;20055;-63
2022/04/19 09:59:44;;;;;;;0.00;0.00;;;18.10;99.90;;;;;;5042307;28;20049;-65
2022/04/19 10:10:26;;;;;;;0.00;0.00;;;18.00;99.90;;;;;;5061555;28;20402;-67
2022/04/19 10:12:53;;;;;;;0.00;0.00;;;18.10;99.90;;;;;;5063362;28;20124;-66
2022/04/19 10:15:20;;;;;;;0.00;0.00;;;18.20;99.90;;;;;;5062986;28;20048;-65
2022/04/19 10:17:47;;;;;;;0.00;0.00;;;18.10;99.90;;;;;;5045472;28;20052;-67
2022/04/19 10:20:14;;;;;;;0.00;0.00;;;18.10;99.90;;;;;;5064764;28;20056;-68
2022/04/19 10:22:49;;;;;;;0.00;0.00;;;18.00;99.90;;;;;;5083020;28;20043;-66
2022/04/19 10:25:15;;;;;;;0.13;0.13;;;18.20;99.90;;;;;;5080745;28;20051;-64
2022/04/19 10:27:42;;;;;;;0.00;0.00;;;18.10;99.90;;;;;;5082429;28;20070;-66
2022/04/19 10:30:08;;;;;;;0.00;0.00;;;17.90;99.90;;;;;;5083532;28;20047;-67
2022/04/19 10:32:34;;;;;;;0.00;0.00;;;18.20;99.90;;;;;;5081385;28;20056;-65
2022/04/19 10:35:04;;;;;;;0.00;0.00;;;18.40;99.90;;;;;;5082547;28;20044;-65
2022/04/19 10:37:30;;;;;;;0.05;0.00;;;18.30;99.90;;;;;;5082979;28;20288;-66
2022/04/19 10:39:58;;;;;;;0.00;0.00;;;18.30;99.70;;;;;;5082514;28;20040;-65
2022/04/19 10:42:32;;;;;;;0.00;0.00;;;18.00;99.10;;;;;;5081840;28;20139;-66
2022/04/19 10:45:10;;;;;;;0.10;0.10;;;18.00;99.70;;;;;;5079032;28;20076;-66
2022/04/19 10:47:59;;;;;;;0.00;0.00;;;18.40;99.90;;;;;;5041609;28;20052;-65
2022/04/19 10:50:36;;;;;;;0.00;0.00;;;18.70;99.90;;;;;;5042355;28;20048;-67
2022/04/19 10:53:12;;;;;;;0.00;0.00;;;18.80;99.90;;;;;;5041781;28;20110;-65
2022/04/19 10:55:56;;;;;;;0.00;0.00;;;19.30;99.90;;;;;;5041368;28;20557;-64
2022/04/19 10:58:38;;;;;;;0.00;0.00;;;19.10;99.90;;;;;;5042315;28;20045;-65
2022/04/19 11:01:05;;;;;;;0.00;0.00;;;19.30;99.90;;;;;;5041540;28;20094;-65
2022/04/19 11:03:37;;;;;;;0.30;0.10;;;19.10;99.90;;;;;;5042045;28;20499;-65
2022/04/19 11:06:04;;;;;;;0.08;0.08;;;19.00;99.90;;;;;;5042106;28;20729;-65
2022/04/19 11:08:32;;;;;;;0.00;0.00;;;19.20;99.90;;;;;;5041520;28;20741;-65
2022/04/19 11:10:58;;;;;;;0.00;0.00;;;18.90;99.90;;;;;;5041248;28;20501;-65
2022/04/19 11:13:31;;;;;;;0.00;0.00;;;18.80;99.70;;;;;;5041465;28;20132;-63
2022/04/19 11:15:58;;;;;;;0.00;0.00;;;18.60;99.80;;;;;;5042397;28;20498;-64
2022/04/19 11:18:29;;;;;;;0.00;0.00;;;18.90;99.90;;;;;;5041954;28;20450;-64
2022/04/19 11:21:03;;;;;;;0.65;0.65;;;18.70;99.60;;;;;;5040297;28;20041;-64
2022/04/19 11:23:40;;;;;;;0.00;0.00;;;18.80;99.80;;;;;;5039868;28;20464;-64
2022/04/19 11:26:08;;;;;;;0.00;0.00;;;18.70;99.90;;;;;;5041164;28;20561;-64
2022/04/19 11:28:34;;;;;;;0.00;0.00;;;18.60;99.70;;;;;;5041270;28;20049;-64
2022/04/19 11:31:00;;;;;;;0.00;0.00;;;18.80;99.40;;;;;;5042271;28;20041;-64
2022/04/19 11:33:34;;;;;;;0.00;0.00;;;19.00;99.90;;;;;;5041460;28;20122;-64
2022/04/19 11:36:10;;;;;;;0.00;0.00;;;19.30;99.90;;;;;;5040049;28;20049;-64
2022/04/19 11:38:50;;;;;;;0.00;0.00;;;19.40;99.90;;;;;;5041483;28;20048;-66
2022/04/19 11:46:56;;;;;;;0.00;0.00;;;19.10;99.90;;;;;;5052944;28;20053;-64
2022/04/19 11:49:22;;;;;;;0.00;0.00;;;19.20;99.90;;;;;;5056653;28;20040;-65
2022/04/19 11:51:54;;;;;;;0.00;0.00;;;19.00;99.90;;;;;;5041605;28;20988;-65
2022/04/19 11:54:26;;;;;;;0.00;0.00;;;19.20;99.90;;;;;;5040249;28;20127;-65
2022/04/19 11:56:59;;;;;;;0.00;0.00;;;19.30;99.90;;;;;;5057240;28;20060;-65
2022/04/19 11:59:30;;;;;;;0.00;0.00;;;19.30;99.90;;;;;;5040326;28;20033;-64
2022/04/19 12:01:57;;;;;;;0.35;0.20;;;19.30;99.90;;;;;;5040407;28;20045;-64
2022/04/19 12:04:23;;;;;;;0.00;0.00;;;19.40;99.90;;;;;;5041069;28;20135;-64
2022/04/19 12:06:57;;;;;;;0.10;0.00;;;19.00;99.90;;;;;;5040888;28;20581;-64
2022/04/19 12:09:23;;;;;;;0.00;0.00;;;19.20;99.90;;;;;;5038799;28;20078;-64
2022/04/19 12:11:50;;;;;;;0.00;0.00;;;19.30;99.90;;;;;;5041211;28;20056;-65
2022/04/19 12:14:29;;;;;;;0.00;0.00;;;19.10;99.90;;;;;;5055494;28;21012;-64
2022/04/19 12:17:00;;;;;;;0.80;0.30;;;18.90;99.70;;;;;;5041372;28;20051;-64
2022/04/19 12:19:41;;;;;;;0.00;0.00;;;18.90;99.90;;;;;;5040751;28;20056;-64
2022/04/19 12:22:20;;;;;;;0.00;0.00;;;19.10;99.90;;;;;;5041726;28;20091;-64
2022/04/19 12:24:53;;;;;;;0.10;0.10;;;19.10;99.90;;;;;;5055750;28;20041;-64
2022/04/19 12:27:30;;;;;;;0.00;0.00;;;18.90;99.90;;;;;;5055657;28;20124;-64
2022/04/19 12:30:02;;;;;;;0.00;0.00;;;19.10;99.90;;;;;;5039898;28;20525;-64
2022/04/19 12:32:50;;;;;;;0.65;0.40;;;18.90;99.90;;;;;;5055033;28;20080;-64
2022/04/19 12:35:17;;;;;;;0.05;0.05;;;18.60;99.90;;;;;;5040710;28;20368;-64
2022/04/19 12:37:42;;;;;;;0.00;0.00;;;18.70;99.90;;;;;;5056208;28;20068;-64
2022/04/19 12:40:09;;;;;;;0.00;0.00;;;18.80;99.90;;;;;;5055510;28;20623;-63
2022/04/19 12:42:52;;;;;;;0.00;0.00;;;19.20;99.90;;;;;;5039317;28;20053;-64
2022/04/19 12:45:18;;;;;;;0.00;0.00;;;19.00;99.90;;;;;;5042468;28;20037;-65
2022/04/19 12:47:47;;;;;;;0.00;0.00;;;18.90;99.90;;;;;;5049592;28;20067;-67
2022/04/19 12:50:16;;;;;;;0.00;0.00;;;19.10;99.90;;;;;;5039026;28;20045;-66
2022/04/19 12:52:43;;;;;;;0.00;0.00;;;19.00;99.90;;;;;;5040314;28;20171;-66
2022/04/19 12:55:09;;;;;;;0.00;0.00;;;19.10;99.90;;;;;;5039142;28;20072;-65
2022/04/19 12:57:38;;;;;;;0.00;0.00;;;19.20;99.90;;;;;;5039491;28;20045;-66
2022/04/19 13:00:09;;;;;;;0.00;0.00;;;19.20;99.90;;;;;;5040743;28;20087;-65
2022/04/19 13:02:36;;;;;;;0.00;0.00;;;19.30;99.90;;;;;;5055621;28;20049;-65
2022/04/19 13:05:02;;;;;;;0.00;0.00;;;19.20;99.90;;;;;;5045610;28;20045;-65
2022/04/19 13:13:01;;;;;;;0.00;0.00;;;19.10;99.90;;;;;;5047251;28;20084;-61
2022/04/19 13:15:27;;;;;;;0.00;0.00;;;19.20;99.90;;;;;;5046459;28;20045;-63
2022/04/19 13:17:52;;;;;;;0.00;0.00;;;19.20;99.90;;;;;;5051312;28;20081;-64
2022/04/19 13:20:18;;;;;;;0.00;0.00;;;19.20;99.90;;;;;;5060362;28;20045;-64
2022/04/19 13:22:43;;;;;;;0.00;0.00;;;19.00;99.90;;;;;;5053484;28;20598;-67
2022/04/19 13:25:09;;;;;;;0.00;0.00;;;18.90;99.90;;;;;;5053409;28;20082;-65
2022/04/19 13:27:36;;;;;;;0.00;0.00;;;18.80;99.90;;;;;;5054075;28;20074;-65
2022/04/19 13:30:04;;;;;;;0.00;0.00;;;18.80;99.90;;;;;;5053884;28;20120;-65
2022/04/19 13:32:30;;;;;;;0.00;0.00;;;18.80;99.90;;;;;;5052865;28;20455;-65
2022/04/19 13:34:56;;;;;;;0.00;0.00;;;18.80;99.90;;;;;;5054173;28;20039;-65
2022/04/19 13:38:23;;;;;;;0.00;0.00;;;18.80;99.90;;;;;;5061494;28;20052;-65
2022/04/19 13:40:07;;;;;;;0.10;0.00;;;18.70;99.90;;;;;;5052485;28;20068;-64
2022/04/19 13:42:33;;;;;;;0.00;0.00;;;18.80;99.90;;;;;;5053603;28;20076;-65
2022/04/19 13:44:59;;;;;;;0.00;0.00;;;18.90;99.90;;;;;;5053870;28;20209;-65